sensor_id;sensor_type;location;lat;lon;timestamp;temperature;humidity
11144;DHT22;5626;44.730;10.276;2022-08-20T00:02:18;21.50;99.90
11144;DHT22;5626;44.730;10.276;2022-08-20T00:04:48;21.50;99.90
11144;DHT22;5626;44.730;10.276;2022-08-20T00:07:18;21.50;99.90
11144;DHT22;5626;44.730;10.276;2022-08-20T00:09:49;21.50;99.90
11144;DHT22;5626;44.730;10.276;2022-08-20T00:12:18;21.40;99.90
11144;DHT22;5626;44.730;10.276;2022-08-20T00:14:48;21.40;99.90
11144;DHT22;5626;44.730;10.276;2022-08-20T00:17:18;21.40;99.90
11144;DHT22;5626;44.730;10.276;2022-08-20T00:19:47;21.40;99.90
11144;DHT22;5626;44.730;10.276;2022-08-20T00:22:17;21.40;99.90
11144;DHT22;5626;44.730;10.276;2022-08-20T00:24:46;21.40;99.90
11144;DHT22;5626;44.730;10.276;2022-08-20T00:27:18;21.40;99.90
11144;DHT22;5626;44.730;10.276;2022-08-20T00:29:47;21.30;99.90
11144;DHT22;5626;44.730;10.276;2022-08-20T00:32:17;21.30;99.90
11144;DHT22;5626;44.730;10.276;2022-08-20T00:34:47;21.30;99.90
11144;DHT22;5626;44.730;10.276;2022-08-20T00:37:16;21.30;99.90
11144;DHT22;5626;44.730;10.276;2022-08-20T00:39:46;21.30;99.90
11144;DHT22;5626;44.730;10.276;2022-08-20T00:42:17;21.40;99.90
11144;DHT22;5626;44.730;10.276;2022-08-20T00:44:47;21.40;99.90
11144;DHT22;5626;44.730;10.276;2022-08-20T00:47:16;21.40;99.90
11144;DHT22;5626;44.730;10.276;2022-08-20T00:49:47;21.40;99.90
11144;DHT22;5626;44.730;10.276;2022-08-20T00:52:18;21.40;99.90
11144;DHT22;5626;44.730;10.276;2022-08-20T00:54:52;21.40;99.90
11144;DHT22;5626;44.730;10.276;2022-08-20T00:57:28;21.40;99.90
11144;DHT22;5626;44.730;10.276;2022-08-20T00:59:58;21.30;99.90
11144;DHT22;5626;44.730;10.276;2022-08-20T01:02:30;21.30;99.90
11144;DHT22;5626;44.730;10.276;2022-08-20T01:05:00;21.30;99.90
11144;DHT22;5626;44.730;10.276;2022-08-20T01:07:30;21.30;99.90
11144;DHT22;5626;44.730;10.276;2022-08-20T01:10:06;21.30;99.90
11144;DHT22;5626;44.730;10.276;2022-08-20T01:12:40;21.30;99.90
11144;DHT22;5626;44.730;10.276;2022-08-20T01:15:13;21.30;99.90
11144;DHT22;5626;44.730;10.276;2022-08-20T01:17:46;21.30;99.90
11144;DHT22;5626;44.730;10.276;2022-08-20T01:20:20;21.30;99.90
11144;DHT22;5626;44.730;10.276;2022-08-20T01:22:57;21.30;99.90
11144;DHT22;5626;44.730;10.276;2022-08-20T01:25:50;21.20;99.90
11144;DHT22;5626;44.730;10.276;2022-08-20T01:28:26;21.20;99.90
11144;DHT22;5626;44.730;10.276;2022-08-20T01:30:57;21.20;99.90
11144;DHT22;5626;44.730;10.276;2022-08-20T01:33:27;21.20;99.90
11144;DHT22;5626;44.730;10.276;2022-08-20T01:35:57;21.20;99.90
11144;DHT22;5626;44.730;10.276;2022-08-20T01:38:28;21.20;99.90
11144;DHT22;5626;44.730;10.276;2022-08-20T01:41:21;21.20;99.90
11144;DHT22;5626;44.730;10.276;2022-08-20T01:43:52;21.20;99.90
11144;DHT22;5626;44.730;10.276;2022-08-20T01:46:26;21.10;99.90
11144;DHT22;5626;44.730;10.276;2022-08-20T01:48:56;21.10;99.90
11144;DHT22;5626;44.730;10.276;2022-08-20T01:51:28;21.10;99.90
11144;DHT22;5626;44.730;10.276;2022-08-20T01:53:58;21.10;99.90
11144;DHT22;5626;44.730;10.276;2022-08-20T01:56:30;21.10;99.90
11144;DHT22;5626;44.730;10.276;2022-08-20T01:59:04;21.10;99.90
11144;DHT22;5626;44.730;10.276;2022-08-20T02:01:36;21.10;99.90
11144;DHT22;5626;44.730;10.276;2022-08-20T02:04:09;21.10;99.90
11144;DHT22;5626;44.730;10.276;2022-08-20T02:06:41;21.10;99.90
11144;DHT22;5626;44.730;10.276;2022-08-20T02:09:11;21.10;99.90
11144;DHT22;5626;44.730;10.276;2022-08-20T02:11:44;21.10;99.90
11144;DHT22;5626;44.730;10.276;2022-08-20T02:14:15;21.10;99.90
11144;DHT22;5626;44.730;10.276;2022-08-20T02:16:45;21.10;99.90
11144;DHT22;5626;44.730;10.276;2022-08-20T02:19:21;21.10;99.90
11144;DHT22;5626;44.730;10.276;2022-08-20T02:21:54;21.10;99.90
11144;DHT22;5626;44.730;10.276;2022-08-20T02:24:25;21.00;99.90
11144;DHT22;5626;44.730;10.276;2022-08-20T02:26:56;21.00;99.90
11144;DHT22;5626;44.730;10.276;2022-08-20T02:29:26;21.00;99.90
11144;DHT22;5626;44.730;10.276;2022-08-20T02:31:55;20.90;99.90
11144;DHT22;5626;44.730;10.276;2022-08-20T02:34:25;20.90;99.90
11144;DHT22;5626;44.730;10.276;2022-08-20T02:36:54;20.90;99.90
11144;DHT22;5626;44.730;10.276;2022-08-20T02:39:24;20.90;99.90
11144;DHT22;5626;44.730;10.276;2022-08-20T02:41:56;20.90;99.90
11144;DHT22;5626;44.730;10.276;2022-08-20T02:44:26;20.90;99.90
11144;DHT22;5626;44.730;10.276;2022-08-20T02:46:55;20.90;99.90
11144;DHT22;5626;44.730;10.276;2022-08-20T02:49:25;20.90;99.90
11144;DHT22;5626;44.730;10.276;2022-08-20T02:51:55;20.80;99.90
11144;DHT22;5626;44.730;10.276;2022-08-20T02:54:24;20.80;99.90
11144;DHT22;5626;44.730;10.276;2022-08-20T02:56:56;20.70;99.90
11144;DHT22;5626;44.730;10.276;2022-08-20T02:59:25;20.70;99.90
11144;DHT22;5626;44.730;10.276;2022-08-20T03:01:55;20.60;99.90
11144;DHT22;5626;44.730;10.276;2022-08-20T03:04:26;20.60;99.90
11144;DHT22;5626;44.730;10.276;2022-08-20T03:06:56;20.50;99.90
11144;DHT22;5626;44.730;10.276;2022-08-20T03:09:26;20.50;99.90
11144;DHT22;5626;44.730;10.276;2022-08-20T03:11:57;20.50;99.90
11144;DHT22;5626;44.730;10.276;2022-08-20T03:14:29;20.50;99.90
11144;DHT22;5626;44.730;10.276;2022-08-20T03:16:59;20.50;99.90
11144;DHT22;5626;44.730;10.276;2022-08-20T03:19:29;20.40;99.90
11144;DHT22;5626;44.730;10.276;2022-08-20T03:21:58;20.40;99.90
11144;DHT22;5626;44.730;10.276;2022-08-20T03:24:28;20.40;99.90
11144;DHT22;5626;44.730;10.276;2022-08-20T03:26:59;20.40;99.90
11144;DHT22;5626;44.730;10.276;2022-08-20T03:29:29;20.40;99.90
11144;DHT22;5626;44.730;10.276;2022-08-20T03:31:58;20.40;99.90
11144;DHT22;5626;44.730;10.276;2022-08-20T03:34:31;20.50;99.90
11144;DHT22;5626;44.730;10.276;2022-08-20T03:37:00;20.50;99.90
11144;DHT22;5626;44.730;10.276;2022-08-20T03:39:30;20.50;99.90
11144;DHT22;5626;44.730;10.276;2022-08-20T03:42:01;20.50;99.90
11144;DHT22;5626;44.730;10.276;2022-08-20T03:44:31;20.50;99.90
11144;DHT22;5626;44.730;10.276;2022-08-20T03:47:02;20.50;99.90
11144;DHT22;5626;44.730;10.276;2022-08-20T03:49:35;20.50;99.90
11144;DHT22;5626;44.730;10.276;2022-08-20T03:52:05;20.40;99.90
11144;DHT22;5626;44.730;10.276;2022-08-20T03:54:34;20.40;99.90
11144;DHT22;5626;44.730;10.276;2022-08-20T03:57:07;20.40;99.90
11144;DHT22;5626;44.730;10.276;2022-08-20T03:59:42;20.30;99.90
11144;DHT22;5626;44.730;10.276;2022-08-20T04:02:12;20.30;99.90
11144;DHT22;5626;44.730;10.276;2022-08-20T04:04:42;20.30;99.90
11144;DHT22;5626;44.730;10.276;2022-08-20T04:07:15;20.30;99.90
11144;DHT22;5626;44.730;10.276;2022-08-20T04:09:45;20.30;99.90
11144;DHT22;5626;44.730;10.276;2022-08-20T04:12:17;20.30;99.90
11144;DHT22;5626;44.730;10.276;2022-08-20T04:14:46;20.30;99.90
11144;DHT22;5626;44.730;10.276;2022-08-20T04:17:18;20.30;99.90
11144;DHT22;5626;44.730;10.276;2022-08-20T04:19:48;20.40;99.90
11144;DHT22;5626;44.730;10.276;2022-08-20T04:22:18;20.40;99.90
11144;DHT22;5626;44.730;10.276;2022-08-20T04:24:47;20.40;99.90
11144;DHT22;5626;44.730;10.276;2022-08-20T04:27:19;20.40;99.90
11144;DHT22;5626;44.730;10.276;2022-08-20T04:29:48;20.40;99.90
11144;DHT22;5626;44.730;10.276;2022-08-20T04:32:18;20.40;99.90
11144;DHT22;5626;44.730;10.276;2022-08-20T04:34:48;20.40;99.90
11144;DHT22;5626;44.730;10.276;2022-08-20T04:37:20;20.50;99.90
11144;DHT22;5626;44.730;10.276;2022-08-20T04:39:50;20.40;99.90
11144;DHT22;5626;44.730;10.276;2022-08-20T04:42:36;20.40;99.90
11144;DHT22;5626;44.730;10.276;2022-08-20T04:45:07;20.40;99.90
11144;DHT22;5626;44.730;10.276;2022-08-20T04:47:37;20.40;99.90
11144;DHT22;5626;44.730;10.276;2022-08-20T04:50:08;20.40;99.90
11144;DHT22;5626;44.730;10.276;2022-08-20T04:52:38;20.40;99.90
11144;DHT22;5626;44.730;10.276;2022-08-20T04:55:08;20.40;99.90
11144;DHT22;5626;44.730;10.276;2022-08-20T04:57:40;20.50;99.90
11144;DHT22;5626;44.730;10.276;2022-08-20T05:00:12;20.50;99.90
11144;DHT22;5626;44.730;10.276;2022-08-20T05:02:43;20.50;99.90
11144;DHT22;5626;44.730;10.276;2022-08-20T05:05:13;20.60;99.90
11144;DHT22;5626;44.730;10.276;2022-08-20T05:07:44;20.60;99.90
11144;DHT22;5626;44.730;10.276;2022-08-20T05:10:16;20.60;99.90
11144;DHT22;5626;44.730;10.276;2022-08-20T05:12:47;20.70;99.90
11144;DHT22;5626;44.730;10.276;2022-08-20T05:15:18;20.70;99.90
11144;DHT22;5626;44.730;10.276;2022-08-20T05:17:54;20.70;99.90
11144;DHT22;5626;44.730;10.276;2022-08-20T05:20:24;20.80;99.90
11144;DHT22;5626;44.730;10.276;2022-08-20T05:23:00;20.90;99.90
11144;DHT22;5626;44.730;10.276;2022-08-20T05:25:30;20.90;99.90
11144;DHT22;5626;44.730;10.276;2022-08-20T05:28:03;21.00;99.90
11144;DHT22;5626;44.730;10.276;2022-08-20T05:30:35;21.00;99.90
11144;DHT22;5626;44.730;10.276;2022-08-20T05:33:06;21.10;99.90
11144;DHT22;5626;44.730;10.276;2022-08-20T05:35:38;21.10;99.90
11144;DHT22;5626;44.730;10.276;2022-08-20T05:38:11;21.20;99.70
11144;DHT22;5626;44.730;10.276;2022-08-20T05:40:41;21.30;99.70
11144;DHT22;5626;44.730;10.276;2022-08-20T05:43:13;21.40;99.70
11144;DHT22;5626;44.730;10.276;2022-08-20T05:45:43;21.50;99.70
11144;DHT22;5626;44.730;10.276;2022-08-20T05:48:15;21.60;99.60
11144;DHT22;5626;44.730;10.276;2022-08-20T05:50:46;21.70;99.60
11144;DHT22;5626;44.730;10.276;2022-08-20T05:53:17;21.80;99.60
11144;DHT22;5626;44.730;10.276;2022-08-20T05:55:47;21.90;99.40
11144;DHT22;5626;44.730;10.276;2022-08-20T05:58:21;21.90;99.30
11144;DHT22;5626;44.730;10.276;2022-08-20T06:00:52;22.00;99.10
11144;DHT22;5626;44.730;10.276;2022-08-20T06:03:22;22.10;99.00
11144;DHT22;5626;44.730;10.276;2022-08-20T06:06:09;22.20;98.90
11144;DHT22;5626;44.730;10.276;2022-08-20T06:08:39;22.30;98.70
11144;DHT22;5626;44.730;10.276;2022-08-20T06:11:09;22.40;98.40
11144;DHT22;5626;44.730;10.276;2022-08-20T06:13:40;22.50;98.20
11144;DHT22;5626;44.730;10.276;2022-08-20T06:16:10;22.60;98.10
11144;DHT22;5626;44.730;10.276;2022-08-20T06:18:40;22.70;97.90
11144;DHT22;5626;44.730;10.276;2022-08-20T06:21:10;22.80;97.60
11144;DHT22;5626;44.730;10.276;2022-08-20T06:23:39;22.90;97.40
11144;DHT22;5626;44.730;10.276;2022-08-20T06:26:09;23.00;97.40
11144;DHT22;5626;44.730;10.276;2022-08-20T06:28:41;23.10;97.00
11144;DHT22;5626;44.730;10.276;2022-08-20T06:31:10;23.10;96.70
11144;DHT22;5626;44.730;10.276;2022-08-20T06:33:40;23.30;96.40
11144;DHT22;5626;44.730;10.276;2022-08-20T06:36:10;23.30;96.20
11144;DHT22;5626;44.730;10.276;2022-08-20T06:38:40;23.40;95.90
11144;DHT22;5626;44.730;10.276;2022-08-20T06:41:10;23.50;96.00
11144;DHT22;5626;44.730;10.276;2022-08-20T06:43:41;23.50;96.00
11144;DHT22;5626;44.730;10.276;2022-08-20T06:46:11;23.60;95.80
11144;DHT22;5626;44.730;10.276;2022-08-20T06:48:41;23.60;95.70
11144;DHT22;5626;44.730;10.276;2022-08-20T06:51:11;23.70;95.40
11144;DHT22;5626;44.730;10.276;2022-08-20T06:53:40;23.70;95.20
11144;DHT22;5626;44.730;10.276;2022-08-20T06:56:10;23.70;95.10
11144;DHT22;5626;44.730;10.276;2022-08-20T06:58:42;23.70;94.90
11144;DHT22;5626;44.730;10.276;2022-08-20T07:01:12;23.70;94.80
11144;DHT22;5626;44.730;10.276;2022-08-20T07:03:42;23.80;94.90
11144;DHT22;5626;44.730;10.276;2022-08-20T07:06:11;23.80;94.50
11144;DHT22;5626;44.730;10.276;2022-08-20T07:08:41;23.80;94.30
11144;DHT22;5626;44.730;10.276;2022-08-20T07:11:11;23.80;94.50
11144;DHT22;5626;44.730;10.276;2022-08-20T07:13:42;23.90;94.30
11144;DHT22;5626;44.730;10.276;2022-08-20T07:16:12;23.90;94.00
11144;DHT22;5626;44.730;10.276;2022-08-20T07:18:42;24.00;93.80
11144;DHT22;5626;44.730;10.276;2022-08-20T07:21:11;24.10;93.20
11144;DHT22;5626;44.730;10.276;2022-08-20T07:23:41;24.10;93.00
11144;DHT22;5626;44.730;10.276;2022-08-20T07:26:11;24.20;93.10
11144;DHT22;5626;44.730;10.276;2022-08-20T07:28:42;24.30;93.00
11144;DHT22;5626;44.730;10.276;2022-08-20T07:31:12;24.40;92.60
11144;DHT22;5626;44.730;10.276;2022-08-20T07:33:59;24.50;92.20
11144;DHT22;5626;44.730;10.276;2022-08-20T07:36:29;24.70;92.30
11144;DHT22;5626;44.730;10.276;2022-08-20T07:38:58;24.80;92.40
11144;DHT22;5626;44.730;10.276;2022-08-20T07:41:28;24.90;92.60
11144;DHT22;5626;44.730;10.276;2022-08-20T07:44:00;25.00;92.20
11144;DHT22;5626;44.730;10.276;2022-08-20T07:46:29;25.10;91.90
11144;DHT22;5626;44.730;10.276;2022-08-20T07:48:59;25.20;91.70
11144;DHT22;5626;44.730;10.276;2022-08-20T07:51:32;25.30;91.50
11144;DHT22;5626;44.730;10.276;2022-08-20T07:54:03;25.40;91.40
11144;DHT22;5626;44.730;10.276;2022-08-20T07:56:33;25.50;90.90
11144;DHT22;5626;44.730;10.276;2022-08-20T07:59:04;25.60;90.50
11144;DHT22;5626;44.730;10.276;2022-08-20T08:01:34;25.70;90.60
11144;DHT22;5626;44.730;10.276;2022-08-20T08:04:04;25.80;90.80
11144;DHT22;5626;44.730;10.276;2022-08-20T08:06:33;25.90;90.80
11144;DHT22;5626;44.730;10.276;2022-08-20T08:09:06;26.00;90.30
11144;DHT22;5626;44.730;10.276;2022-08-20T08:11:39;26.10;90.00
11144;DHT22;5626;44.730;10.276;2022-08-20T08:14:17;26.20;90.00
11144;DHT22;5626;44.730;10.276;2022-08-20T08:16:52;26.30;89.90
11144;DHT22;5626;44.730;10.276;2022-08-20T08:19:24;26.40;89.90
11144;DHT22;5626;44.730;10.276;2022-08-20T08:21:55;26.50;90.20
11144;DHT22;5626;44.730;10.276;2022-08-20T08:24:25;26.60;90.20
11144;DHT22;5626;44.730;10.276;2022-08-20T08:26:55;26.70;90.20
11144;DHT22;5626;44.730;10.276;2022-08-20T08:29:26;26.80;88.90
11144;DHT22;5626;44.730;10.276;2022-08-20T08:31:56;26.90;88.30
11144;DHT22;5626;44.730;10.276;2022-08-20T08:34:30;27.00;88.10
11144;DHT22;5626;44.730;10.276;2022-08-20T08:37:00;27.00;88.60
11144;DHT22;5626;44.730;10.276;2022-08-20T08:39:31;27.10;87.00
11144;DHT22;5626;44.730;10.276;2022-08-20T08:42:02;27.20;86.80
11144;DHT22;5626;44.730;10.276;2022-08-20T08:44:46;27.20;87.10
11144;DHT22;5626;44.730;10.276;2022-08-20T08:47:23;27.30;87.50
11144;DHT22;5626;44.730;10.276;2022-08-20T08:49:54;27.40;86.80
11144;DHT22;5626;44.730;10.276;2022-08-20T08:52:26;27.50;87.50
11144;DHT22;5626;44.730;10.276;2022-08-20T08:54:59;27.50;86.60
11144;DHT22;5626;44.730;10.276;2022-08-20T08:57:30;27.60;87.50
11144;DHT22;5626;44.730;10.276;2022-08-20T09:00:06;27.70;87.70
11144;DHT22;5626;44.730;10.276;2022-08-20T09:02:37;27.80;86.20
11144;DHT22;5626;44.730;10.276;2022-08-20T09:05:13;27.90;87.00
11144;DHT22;5626;44.730;10.276;2022-08-20T09:07:48;28.10;87.20
11144;DHT22;5626;44.730;10.276;2022-08-20T09:10:19;28.20;86.20
11144;DHT22;5626;44.730;10.276;2022-08-20T09:12:49;28.20;85.60
11144;DHT22;5626;44.730;10.276;2022-08-20T09:15:21;28.30;84.90
11144;DHT22;5626;44.730;10.276;2022-08-20T09:17:50;28.30;84.10
11144;DHT22;5626;44.730;10.276;2022-08-20T09:20:20;28.40;82.70
11144;DHT22;5626;44.730;10.276;2022-08-20T09:22:50;28.40;82.00
11144;DHT22;5626;44.730;10.276;2022-08-20T09:25:20;28.40;81.40
11144;DHT22;5626;44.730;10.276;2022-08-20T09:27:50;28.50;81.70
11144;DHT22;5626;44.730;10.276;2022-08-20T09:30:21;28.50;81.80
11144;DHT22;5626;44.730;10.276;2022-08-20T09:32:51;28.60;81.70
11144;DHT22;5626;44.730;10.276;2022-08-20T09:35:21;28.70;80.50
11144;DHT22;5626;44.730;10.276;2022-08-20T09:37:51;28.80;81.50
11144;DHT22;5626;44.730;10.276;2022-08-20T09:40:21;28.80;83.20
11144;DHT22;5626;44.730;10.276;2022-08-20T09:42:51;28.90;81.90
11144;DHT22;5626;44.730;10.276;2022-08-20T09:45:22;29.00;82.00
11144;DHT22;5626;44.730;10.276;2022-08-20T09:47:52;29.00;80.90
11144;DHT22;5626;44.730;10.276;2022-08-20T09:50:22;29.00;81.30
11144;DHT22;5626;44.730;10.276;2022-08-20T09:52:53;29.20;81.10
11144;DHT22;5626;44.730;10.276;2022-08-20T09:55:30;29.20;78.60
11144;DHT22;5626;44.730;10.276;2022-08-20T09:58:02;29.20;79.30
11144;DHT22;5626;44.730;10.276;2022-08-20T10:00:34;29.30;80.30
11144;DHT22;5626;44.730;10.276;2022-08-20T10:03:04;29.30;79.90
11144;DHT22;5626;44.730;10.276;2022-08-20T10:05:34;29.40;79.40
11144;DHT22;5626;44.730;10.276;2022-08-20T10:08:05;29.50;79.10
11144;DHT22;5626;44.730;10.276;2022-08-20T10:10:35;29.50;78.30
11144;DHT22;5626;44.730;10.276;2022-08-20T10:13:06;29.50;78.60
11144;DHT22;5626;44.730;10.276;2022-08-20T10:15:37;29.60;79.00
11144;DHT22;5626;44.730;10.276;2022-08-20T10:18:06;29.60;78.80
11144;DHT22;5626;44.730;10.276;2022-08-20T10:20:37;29.60;78.20
11144;DHT22;5626;44.730;10.276;2022-08-20T10:23:07;29.60;78.20
11144;DHT22;5626;44.730;10.276;2022-08-20T10:25:37;29.70;79.20
11144;DHT22;5626;44.730;10.276;2022-08-20T10:28:07;29.70;78.20
11144;DHT22;5626;44.730;10.276;2022-08-20T10:30:38;29.80;78.50
11144;DHT22;5626;44.730;10.276;2022-08-20T10:33:08;29.90;78.10
11144;DHT22;5626;44.730;10.276;2022-08-20T10:35:38;29.90;78.50
11144;DHT22;5626;44.730;10.276;2022-08-20T10:38:08;29.90;77.50
11144;DHT22;5626;44.730;10.276;2022-08-20T10:40:38;30.00;76.80
11144;DHT22;5626;44.730;10.276;2022-08-20T10:43:07;30.00;76.40
11144;DHT22;5626;44.730;10.276;2022-08-20T10:45:39;30.10;76.70
11144;DHT22;5626;44.730;10.276;2022-08-20T10:48:08;30.20;77.40
11144;DHT22;5626;44.730;10.276;2022-08-20T10:50:38;30.30;77.20
11144;DHT22;5626;44.730;10.276;2022-08-20T10:53:08;30.40;77.40
11144;DHT22;5626;44.730;10.276;2022-08-20T10:55:38;30.50;75.80
11144;DHT22;5626;44.730;10.276;2022-08-20T10:58:08;30.50;76.30
11144;DHT22;5626;44.730;10.276;2022-08-20T11:00:39;30.50;76.40
11144;DHT22;5626;44.730;10.276;2022-08-20T11:03:09;30.60;76.30
11144;DHT22;5626;44.730;10.276;2022-08-20T11:05:39;30.70;76.50
11144;DHT22;5626;44.730;10.276;2022-08-20T11:08:08;30.80;76.40
11144;DHT22;5626;44.730;10.276;2022-08-20T11:10:39;30.80;75.20
11144;DHT22;5626;44.730;10.276;2022-08-20T11:13:09;30.90;75.80
11144;DHT22;5626;44.730;10.276;2022-08-20T11:15:42;31.10;76.20
11144;DHT22;5626;44.730;10.276;2022-08-20T11:18:12;31.10;75.00
11144;DHT22;5626;44.730;10.276;2022-08-20T11:20:42;31.20;73.50
11144;DHT22;5626;44.730;10.276;2022-08-20T11:23:12;31.20;74.90
11144;DHT22;5626;44.730;10.276;2022-08-20T11:25:41;31.30;75.00
11144;DHT22;5626;44.730;10.276;2022-08-20T11:28:11;31.30;74.80
11144;DHT22;5626;44.730;10.276;2022-08-20T11:30:42;31.40;73.60
11144;DHT22;5626;44.730;10.276;2022-08-20T11:33:13;31.50;71.60
11144;DHT22;5626;44.730;10.276;2022-08-20T11:35:43;31.50;72.10
11144;DHT22;5626;44.730;10.276;2022-08-20T11:38:13;31.50;71.10
11144;DHT22;5626;44.730;10.276;2022-08-20T11:40:43;31.60;71.70
11144;DHT22;5626;44.730;10.276;2022-08-20T11:43:14;31.70;71.90
11144;DHT22;5626;44.730;10.276;2022-08-20T11:45:47;31.80;72.50
11144;DHT22;5626;44.730;10.276;2022-08-20T11:48:18;31.80;72.10
11144;DHT22;5626;44.730;10.276;2022-08-20T11:50:48;31.90;71.40
11144;DHT22;5626;44.730;10.276;2022-08-20T11:53:18;32.00;71.30
11144;DHT22;5626;44.730;10.276;2022-08-20T11:55:48;32.10;70.80
11144;DHT22;5626;44.730;10.276;2022-08-20T11:58:18;32.10;70.40
11144;DHT22;5626;44.730;10.276;2022-08-20T12:00:49;32.10;69.90
11144;DHT22;5626;44.730;10.276;2022-08-20T12:03:20;32.20;69.40
11144;DHT22;5626;44.730;10.276;2022-08-20T12:05:50;32.20;68.30
11144;DHT22;5626;44.730;10.276;2022-08-20T12:08:19;32.30;69.80
11144;DHT22;5626;44.730;10.276;2022-08-20T12:10:49;32.30;68.60
11144;DHT22;5626;44.730;10.276;2022-08-20T12:13:19;32.30;67.40
11144;DHT22;5626;44.730;10.276;2022-08-20T12:15:51;32.30;67.20
11144;DHT22;5626;44.730;10.276;2022-08-20T12:18:22;32.30;67.80
11144;DHT22;5626;44.730;10.276;2022-08-20T12:20:52;32.30;68.20
11144;DHT22;5626;44.730;10.276;2022-08-20T12:23:22;32.40;67.70
11144;DHT22;5626;44.730;10.276;2022-08-20T12:25:52;32.40;68.20
11144;DHT22;5626;44.730;10.276;2022-08-20T12:28:22;32.40;66.70
11144;DHT22;5626;44.730;10.276;2022-08-20T12:30:53;32.30;65.70
11144;DHT22;5626;44.730;10.276;2022-08-20T12:33:23;32.30;65.80
11144;DHT22;5626;44.730;10.276;2022-08-20T12:35:53;32.40;67.70
11144;DHT22;5626;44.730;10.276;2022-08-20T12:38:22;32.40;66.50
11144;DHT22;5626;44.730;10.276;2022-08-20T12:40:52;32.50;66.40
11144;DHT22;5626;44.730;10.276;2022-08-20T12:43:22;32.50;66.80
11144;DHT22;5626;44.730;10.276;2022-08-20T12:45:53;32.50;66.20
11144;DHT22;5626;44.730;10.276;2022-08-20T12:48:23;32.60;66.70
11144;DHT22;5626;44.730;10.276;2022-08-20T12:50:52;32.70;67.10
11144;DHT22;5626;44.730;10.276;2022-08-20T12:53:22;32.70;66.30
11144;DHT22;5626;44.730;10.276;2022-08-20T12:55:52;32.70;66.90
11144;DHT22;5626;44.730;10.276;2022-08-20T12:58:21;32.70;65.70
11144;DHT22;5626;44.730;10.276;2022-08-20T13:00:53;32.80;66.30
11144;DHT22;5626;44.730;10.276;2022-08-20T13:03:22;32.80;64.20
11144;DHT22;5626;44.730;10.276;2022-08-20T13:05:52;32.80;62.40
11144;DHT22;5626;44.730;10.276;2022-08-20T13:08:22;32.90;62.90
11144;DHT22;5626;44.730;10.276;2022-08-20T13:10:51;32.90;62.90
11144;DHT22;5626;44.730;10.276;2022-08-20T13:13:21;33.00;63.80
11144;DHT22;5626;44.730;10.276;2022-08-20T13:15:52;33.10;62.00
11144;DHT22;5626;44.730;10.276;2022-08-20T13:18:22;33.10;59.70
11144;DHT22;5626;44.730;10.276;2022-08-20T13:20:51;33.20;60.20
11144;DHT22;5626;44.730;10.276;2022-08-20T13:23:21;33.10;59.40
11144;DHT22;5626;44.730;10.276;2022-08-20T13:25:51;33.10;60.30
11144;DHT22;5626;44.730;10.276;2022-08-20T13:28:21;33.10;60.40
11144;DHT22;5626;44.730;10.276;2022-08-20T13:30:51;33.10;61.50
11144;DHT22;5626;44.730;10.276;2022-08-20T13:33:22;33.10;61.50
11144;DHT22;5626;44.730;10.276;2022-08-20T13:35:53;33.10;60.70
11144;DHT22;5626;44.730;10.276;2022-08-20T13:38:23;33.10;60.30
11144;DHT22;5626;44.730;10.276;2022-08-20T13:40:53;33.10;60.30
11144;DHT22;5626;44.730;10.276;2022-08-20T13:43:22;33.20;61.60
11144;DHT22;5626;44.730;10.276;2022-08-20T13:45:52;33.30;60.10
11144;DHT22;5626;44.730;10.276;2022-08-20T13:48:23;33.40;60.00
11144;DHT22;5626;44.730;10.276;2022-08-20T13:50:53;33.40;60.40
11144;DHT22;5626;44.730;10.276;2022-08-20T13:53:22;33.40;60.40
11144;DHT22;5626;44.730;10.276;2022-08-20T13:55:52;33.30;57.40
11144;DHT22;5626;44.730;10.276;2022-08-20T13:58:22;33.30;57.30
11144;DHT22;5626;44.730;10.276;2022-08-20T14:00:52;33.30;57.10
11144;DHT22;5626;44.730;10.276;2022-08-20T14:03:23;33.30;57.00
11144;DHT22;5626;44.730;10.276;2022-08-20T14:05:52;33.30;56.60
11144;DHT22;5626;44.730;10.276;2022-08-20T14:08:23;33.30;58.20
11144;DHT22;5626;44.730;10.276;2022-08-20T14:10:53;33.30;57.40
11144;DHT22;5626;44.730;10.276;2022-08-20T14:13:24;33.30;57.90
11144;DHT22;5626;44.730;10.276;2022-08-20T14:15:55;33.40;58.50
11144;DHT22;5626;44.730;10.276;2022-08-20T14:18:26;33.40;57.40
11144;DHT22;5626;44.730;10.276;2022-08-20T14:20:55;33.40;57.50
11144;DHT22;5626;44.730;10.276;2022-08-20T14:23:25;33.40;56.40
11144;DHT22;5626;44.730;10.276;2022-08-20T14:25:55;33.40;56.40
11144;DHT22;5626;44.730;10.276;2022-08-20T14:28:24;33.30;56.20
11144;DHT22;5626;44.730;10.276;2022-08-20T14:30:54;33.30;56.40
11144;DHT22;5626;44.730;10.276;2022-08-20T14:33:25;33.30;56.30
11144;DHT22;5626;44.730;10.276;2022-08-20T14:35:55;33.30;55.10
11144;DHT22;5626;44.730;10.276;2022-08-20T14:38:25;33.40;55.10
11144;DHT22;5626;44.730;10.276;2022-08-20T14:40:54;33.40;55.90
11144;DHT22;5626;44.730;10.276;2022-08-20T14:43:24;33.50;55.50
11144;DHT22;5626;44.730;10.276;2022-08-20T14:45:54;33.50;54.90
11144;DHT22;5626;44.730;10.276;2022-08-20T14:48:25;33.40;54.30
11144;DHT22;5626;44.730;10.276;2022-08-20T14:50:55;33.40;54.40
11144;DHT22;5626;44.730;10.276;2022-08-20T14:53:26;33.40;54.90
11144;DHT22;5626;44.730;10.276;2022-08-20T14:55:56;33.40;54.50
11144;DHT22;5626;44.730;10.276;2022-08-20T14:58:25;33.40;54.00
11144;DHT22;5626;44.730;10.276;2022-08-20T15:00:55;33.40;54.00
11144;DHT22;5626;44.730;10.276;2022-08-20T15:03:26;33.30;53.80
11144;DHT22;5626;44.730;10.276;2022-08-20T15:05:57;33.20;53.90
11144;DHT22;5626;44.730;10.276;2022-08-20T15:08:27;33.20;52.60
11144;DHT22;5626;44.730;10.276;2022-08-20T15:10:58;33.10;52.50
11144;DHT22;5626;44.730;10.276;2022-08-20T15:13:28;33.10;52.60
11144;DHT22;5626;44.730;10.276;2022-08-20T15:15:58;33.10;52.40
11144;DHT22;5626;44.730;10.276;2022-08-20T15:18:29;33.00;52.70
11144;DHT22;5626;44.730;10.276;2022-08-20T15:20:59;33.00;52.70
11144;DHT22;5626;44.730;10.276;2022-08-20T15:23:29;33.00;53.80
11144;DHT22;5626;44.730;10.276;2022-08-20T15:25:59;33.00;53.80
11144;DHT22;5626;44.730;10.276;2022-08-20T15:28:28;33.00;53.40
11144;DHT22;5626;44.730;10.276;2022-08-20T15:30:58;33.00;54.00
11144;DHT22;5626;44.730;10.276;2022-08-20T15:33:29;33.10;54.30
11144;DHT22;5626;44.730;10.276;2022-08-20T15:35:59;33.10;54.10
11144;DHT22;5626;44.730;10.276;2022-08-20T15:38:29;33.10;53.80
11144;DHT22;5626;44.730;10.276;2022-08-20T15:41:00;33.10;54.50
11144;DHT22;5626;44.730;10.276;2022-08-20T15:43:31;33.00;53.80
11144;DHT22;5626;44.730;10.276;2022-08-20T15:46:03;33.00;54.10
11144;DHT22;5626;44.730;10.276;2022-08-20T15:48:39;33.00;54.00
11144;DHT22;5626;44.730;10.276;2022-08-20T15:51:17;32.90;55.40
11144;DHT22;5626;44.730;10.276;2022-08-20T15:53:57;32.90;55.80